Weather at Ottawa Macdonald-Cartier International Airport

Public forecast

Using degrees Celsius for public forecast. Weather courtesy of forecast.io.

Current aviation weather report (METAR) for Ottawa Macdonald-Cartier International Airport

2024/07/17 14:00 (retrieved 12 minutes ago)

CYOW 171400Z 25009KT 15SM FEW050 FEW150 SCT220 24/20 A2976 RMK SC1AC1CI3 SC TR SLP077 DENSITY ALT 1700FT

Aviation forecast (TAF) for Ottawa Macdonald-Cartier International Airport

2024/07/17 12:42 (retrieved 2 hours ago)

TAF CYOW 171140Z 1712/1812 21005KT P6SM BKN050 TEMPO 1712/1719 SCT050 BECMG 1717/1719 28010KT FM171900 28010KT P6SM -SHRA BKN040 PROB30 1719/1801 2SM TSRA BR OVC020CB FM180200 28006KT P6SM SCT040 FM180800 29010KT P6SM -SHRA SCT008 BKN020 RMK NXT FCST BY 171500Z